Chibougamau, Canada
Current Conditions -  °F | °C
As of 5:00 PM on Wednesday 28 Jan 2015 (Local Time) from CYMT Reporting Station
Overcast Overcast  
Wind Chill:   Ceiling: 2000
Heat Index:   Visibility: 15mi
Dew Point:   Wind: 5mph
Humidity: 67%   Direction: 200°SSW
Pressure: 30.05"   Gusts: NA
Location:  49.91°N, 74.37°W
Report Text: CYMT 282200Z 20004KT 15SM OVC020 M13/M18 A3005 RMK SC8 SLP221
Loading
Personal Weather Stations






























Interactive Weather Map New forecast layout! Learn more

10-Day Weather Forecast

Advertisements
Track Severe Weather on mobile